Zhezkazgan, Kazakhstan
Current Conditions -  °F | °C
As of 3:00 PM on Wednesday 28 Jan 2015 (Local Time) from UAKD Reporting Station
Clear Clear  
Wind Chill: -17°   Ceiling: Unl
Heat Index:   Visibility: 4mi
Dew Point: -8°   Wind: 11mph
Humidity: 72%   Direction: 50°NE
Pressure: 30.56"   Gusts: NA
Location:  47.78°N, 67.77°E
Report Text: UAKD 280900Z 05005MPS 7000 NSC M18/M22 Q1035 R04/95//40 NOSIGRMK QFE742/0990
Loading
Personal Weather Stations






























Interactive Weather Map New forecast layout! Learn more

10-Day Weather Forecast

Advertisements
Track Severe Weather on mobile